Time;durP1;ratioP1;P1;durP2;ratioP2;P2;SDS_P1;SDS_P2;PMS_P1;PMS_P2;Temp;Humidity;BMP_temperature;BMP_pressure;BME280_temperature;BME280_humidity;BME280_pressure;Samples;Min_cycle;Max_cycle;Signal;HPM_P1;HPM_P2
2022/01/23 00:00:22;;;;;;;18.27;10.43;;;;;;;;;;5074680;28;20554;-72
2022/01/23 00:02:50;;;;;;;20.27;11.87;;;;;;;;;;5074323;28;20527;-72
2022/01/23 00:05:20;;;;;;;22.60;12.30;;;;;;;;;;5074255;28;20977;-73
2022/01/23 00:07:47;;;;;;;18.43;10.20;;;;;;;;;;5074467;28;20452;-72
2022/01/23 00:10:15;;;;;;;18.70;11.47;;;;;;;;;;5074435;28;20495;-72
2022/01/23 00:12:46;;;;;;;14.27;9.23;;;;;;;;;;5074220;28;20451;-71
2022/01/23 00:18:00;;;;;;;17.80;10.33;;;;;;;;;;5074229;28;20562;-72
2022/01/23 00:20:27;;;;;;;18.50;9.47;;;;;;;;;;5074102;28;20821;-72
2022/01/23 00:22:59;;;;;;;19.77;12.40;;;;;;;;;;5073845;28;20499;-72
2022/01/23 00:30:58;;;;;;;19.40;10.67;;;;;;;;;;5074091;28;20792;-72
2022/01/23 00:33:27;;;;;;;16.67;9.83;;;;;;;;;;5073898;28;20458;-72
2022/01/23 00:35:55;;;;;;;18.13;10.23;;;;;;;;;;5074013;28;20476;-72
2022/01/23 00:38:22;;;;;;;17.67;9.93;;;;;;;;;;5073788;28;20515;-72
2022/01/23 00:40:49;;;;;;;14.03;8.87;;;;;;;;;;5073622;28;20463;-71
2022/01/23 00:43:26;;;;;;;22.70;13.50;;;;;;;;;;5073994;28;20856;-71
2022/01/23 00:46:07;;;;;;;17.77;10.43;;;;;;;;;;5073685;28;20842;-71
2022/01/23 00:48:38;;;;;;;20.17;12.33;;;;;;;;;;5073618;28;20529;-72
2022/01/23 00:51:05;;;;;;;15.43;9.67;;;;;;;;;;5073814;28;20460;-72
2022/01/23 00:53:32;;;;;;;16.50;9.73;;;;;;;;;;5073608;28;20455;-72
2022/01/23 00:55:59;;;;;;;17.17;10.07;;;;;;;;;;5073243;28;20483;-71
2022/01/23 00:58:26;;;;;;;24.10;11.97;;;;;;;;;;5073746;28;20448;-71
2022/01/23 01:00:53;;;;;;;19.60;11.47;;;;;;;;;;5073978;28;20455;-71
2022/01/23 01:03:20;;;;;;;21.87;12.97;;;;;;;;;;5073364;28;20486;-72
2022/01/23 01:05:49;;;;;;;22.47;11.80;;;;;;;;;;5073195;28;20471;-72
2022/01/23 01:08:17;;;;;;;24.73;12.57;;;;;;;;;;5073946;28;20835;-72
2022/01/23 01:10:53;;;;;;;24.60;11.23;;;;;;;;;;5073471;28;20574;-73
2022/01/23 01:13:22;;;;;;;20.30;11.90;;;;;;;;;;5073454;28;20458;-72
2022/01/23 01:16:01;;;;;;;20.93;11.00;;;;;;;;;;5072941;28;20502;-72
2022/01/23 01:32:16;;;;;;;22.70;11.10;;;;;;;;;;5073662;28;20431;-72
2022/01/23 01:34:49;;;;;;;23.10;11.90;;;;;;;;;;5073328;28;20491;-72
2022/01/23 01:37:17;;;;;;;23.13;12.53;;;;;;;;;;5073863;28;20467;-72
2022/01/23 01:39:45;;;;;;;23.50;12.93;;;;;;;;;;5073371;28;20459;-72
2022/01/23 01:42:12;;;;;;;22.57;11.50;;;;;;;;;;5073603;28;20833;-72
2022/01/23 01:44:39;;;;;;;21.40;11.67;;;;;;;;;;5073019;28;20459;-72
2022/01/23 01:47:08;;;;;;;20.90;10.70;;;;;;;;;;5073270;28;20479;-73
2022/01/23 01:49:35;;;;;;;25.20;13.93;;;;;;;;;;5073557;28;20505;-72
2022/01/23 01:52:03;;;;;;;28.40;13.67;;;;;;;;;;5073719;28;20447;-72
2022/01/23 01:54:33;;;;;;;25.70;14.17;;;;;;;;;;5073547;28;20459;-72
2022/01/23 01:57:11;;;;;;;24.67;14.20;;;;;;;;;;5073634;28;20479;-72
2022/01/23 02:00:10;;;;;;;24.70;13.23;;;;;;;;;;5073212;28;20455;-72
2022/01/23 02:02:57;;;;;;;27.77;12.73;;;;;;;;;;5073113;28;20847;-72
2022/01/23 02:08:23;;;;;;;31.23;14.70;;;;;;;;;;5073354;28;20486;-72
2022/01/23 02:10:56;;;;;;;29.83;14.73;;;;;;;;;;5073341;28;20550;-71
2022/01/23 02:13:28;;;;;;;32.37;15.53;;;;;;;;;;5073381;28;20487;-72
2022/01/23 02:16:19;;;;;;;25.53;13.30;;;;;;;;;;5073017;28;20472;-71
2022/01/23 02:52:17;;;;;;;37.70;18.40;;;;;;;;;;5076055;28;20837;-71
2022/01/23 02:54:55;;;;;;;38.07;20.10;;;;;;;;;;5075777;28;20932;-71
2022/01/23 02:57:37;;;;;;;38.10;17.87;;;;;;;;;;5076034;28;20451;-71
2022/01/23 03:00:11;;;;;;;42.53;18.27;;;;;;;;;;5075799;28;20455;-72
2022/01/23 03:02:43;;;;;;;45.93;18.87;;;;;;;;;;5075553;28;20491;-71
2022/01/23 03:05:12;;;;;;;39.60;18.70;;;;;;;;;;5075794;28;20456;-72
2022/01/23 03:10:25;;;;;;;41.97;18.47;;;;;;;;;;5073591;28;20475;-71
2022/01/23 03:16:01;;;;;;;42.30;19.27;;;;;;;;;;5053167;28;20467;-71
2022/01/23 03:26:58;;;;;;;38.20;18.40;;;;;;;;;;5064790;28;20456;-71
2022/01/23 03:29:27;;;;;;;35.27;19.20;;;;;;;;;;5075898;28;20493;-71
2022/01/23 03:32:11;;;;;;;34.00;17.80;;;;;;;;;;5075749;28;20458;-71
2022/01/23 03:34:38;;;;;;;35.23;18.17;;;;;;;;;;5076054;28;20455;-71
2022/01/23 03:37:06;;;;;;;44.67;17.47;;;;;;;;;;5075545;28;20475;-71
2022/01/23 03:39:33;;;;;;;38.53;18.50;;;;;;;;;;5075277;28;20460;-71
2022/01/23 03:42:01;;;;;;;39.80;17.47;;;;;;;;;;5075411;28;20937;-71
2022/01/23 03:44:28;;;;;;;39.30;16.20;;;;;;;;;;5075390;28;20488;-71
2022/01/23 03:47:14;;;;;;;39.77;19.03;;;;;;;;;;5075119;28;20468;-71
2022/01/23 03:49:40;;;;;;;42.07;17.83;;;;;;;;;;5075414;28;20440;-71
2022/01/23 03:52:09;;;;;;;40.40;17.10;;;;;;;;;;5074802;28;20460;-71
2022/01/23 03:54:37;;;;;;;38.70;18.43;;;;;;;;;;5074866;28;20456;-71
2022/01/23 03:57:06;;;;;;;35.80;19.60;;;;;;;;;;5075670;28;20470;-71
2022/01/23 03:59:33;;;;;;;44.07;19.90;;;;;;;;;;5075519;28;20458;-71
2022/01/23 04:02:01;;;;;;;57.70;20.33;;;;;;;;;;5074824;28;20456;-70
2022/01/23 04:04:38;;;;;;;38.50;19.33;;;;;;;;;;5074399;28;20483;-70
2022/01/23 04:07:06;;;;;;;38.93;18.03;;;;;;;;;;5074750;28;20475;-70
2022/01/23 04:09:33;;;;;;;50.70;18.70;;;;;;;;;;5074542;28;20455;-70
2022/01/23 04:12:01;;;;;;;40.77;20.20;;;;;;;;;;5074892;28;20479;-71
2022/01/23 04:14:30;;;;;;;46.10;19.40;;;;;;;;;;5074801;28;21005;-71
2022/01/23 04:19:57;;;;;;;37.60;17.27;;;;;;;;;;5074156;28;20432;-71
2022/01/23 04:33:41;;;;;;;40.87;18.60;;;;;;;;;;5074731;28;20916;-70
2022/01/23 05:00:54;;;;;;;37.03;15.77;;;;;;;;;;5073864;28;20435;-70
2022/01/23 05:06:21;;;;;;;41.53;18.33;;;;;;;;;;5073871;28;20771;-70
2022/01/23 05:08:48;;;;;;;36.03;18.50;;;;;;;;;;5074011;28;20852;-70
2022/01/23 05:11:16;;;;;;;37.07;17.37;;;;;;;;;;5073320;28;20452;-70
2022/01/23 05:13:43;;;;;;;38.83;17.30;;;;;;;;;;5073595;28;20440;-70
2022/01/23 05:16:11;;;;;;;39.33;17.47;;;;;;;;;;5073494;28;20507;-71
2022/01/23 05:18:40;;;;;;;38.47;19.60;;;;;;;;;;5073986;28;20452;-71
2022/01/23 05:21:20;;;;;;;40.40;17.50;;;;;;;;;;5073513;28;20463;-71
2022/01/23 05:23:47;;;;;;;33.30;17.17;;;;;;;;;;5073585;28;20471;-71
2022/01/23 05:26:15;;;;;;;40.57;17.87;;;;;;;;;;5073278;28;20471;-71
2022/01/23 05:28:42;;;;;;;34.77;16.90;;;;;;;;;;5073676;28;20819;-71
2022/01/23 05:31:09;;;;;;;34.33;17.93;;;;;;;;;;5073651;28;20447;-71
2022/01/23 05:33:36;;;;;;;42.40;20.50;;;;;;;;;;5073557;28;20451;-71
2022/01/23 05:36:05;;;;;;;41.70;18.87;;;;;;;;;;5073295;28;20471;-71
2022/01/23 05:38:33;;;;;;;39.63;17.73;;;;;;;;;;5073454;28;20796;-71
2022/01/23 05:41:01;;;;;;;35.00;16.53;;;;;;;;;;5073663;28;20490;-71
2022/01/23 05:43:28;;;;;;;37.13;18.43;;;;;;;;;;5073443;28;20829;-71
2022/01/23 05:45:55;;;;;;;40.67;19.43;;;;;;;;;;5073171;28;20483;-71
2022/01/23 05:48:22;;;;;;;39.03;19.93;;;;;;;;;;5073341;28;20808;-71
2022/01/23 05:50:50;;;;;;;45.53;21.83;;;;;;;;;;5073370;28;20455;-70
2022/01/23 05:53:18;;;;;;;40.27;21.10;;;;;;;;;;5073256;28;20451;-71
2022/01/23 05:55:45;;;;;;;34.90;17.63;;;;;;;;;;5072991;28;20478;-71
2022/01/23 05:58:13;;;;;;;36.00;18.27;;;;;;;;;;5073203;28;20448;-71
2022/01/23 06:00:40;;;;;;;34.00;18.53;;;;;;;;;;5073320;28;20977;-71
2022/01/23 06:03:07;;;;;;;33.83;19.17;;;;;;;;;;5073149;28;20443;-71
2022/01/23 06:05:35;;;;;;;46.23;18.47;;;;;;;;;;5073123;28;20498;-71
2022/01/23 06:08:02;;;;;;;40.80;19.43;;;;;;;;;;5073147;28;20448;-71
2022/01/23 06:10:46;;;;;;;38.80;19.27;;;;;;;;;;5072869;28;20443;-71
2022/01/23 06:13:13;;;;;;;35.17;17.77;;;;;;;;;;5073065;28;20436;-71
2022/01/23 06:15:40;;;;;;;40.70;19.40;;;;;;;;;;5072686;28;20467;-71
2022/01/23 06:18:07;;;;;;;41.00;19.30;;;;;;;;;;5072919;28;20959;-71
2022/01/23 06:20:34;;;;;;;40.53;18.50;;;;;;;;;;5072721;28;20440;-71
2022/01/23 06:23:02;;;;;;;47.70;21.87;;;;;;;;;;5075597;28;20952;-71
2022/01/23 06:25:34;;;;;;;52.17;21.33;;;;;;;;;;5076315;28;20496;-71
2022/01/23 06:28:05;;;;;;;44.57;19.77;;;;;;;;;;5076561;28;20526;-71
2022/01/23 06:30:32;;;;;;;37.47;17.40;;;;;;;;;;5076655;28;20951;-71
2022/01/23 06:32:59;;;;;;;40.10;19.97;;;;;;;;;;5076653;28;20818;-71
2022/01/23 06:35:26;;;;;;;39.47;17.77;;;;;;;;;;5076489;28;20479;-71
2022/01/23 06:37:53;;;;;;;47.00;19.30;;;;;;;;;;5076305;28;20451;-71
2022/01/23 06:40:20;;;;;;;39.00;19.03;;;;;;;;;;5076143;28;20460;-71
2022/01/23 06:42:49;;;;;;;49.70;20.93;;;;;;;;;;5076517;28;20807;-71
2022/01/23 06:45:16;;;;;;;38.07;22.03;;;;;;;;;;5076049;28;20487;-71
2022/01/23 06:47:43;;;;;;;36.07;17.87;;;;;;;;;;5076684;28;20458;-71
2022/01/23 06:50:11;;;;;;;32.33;17.87;;;;;;;;;;5076594;28;20455;-71
2022/01/23 06:52:38;;;;;;;38.47;18.27;;;;;;;;;;5076525;28;20839;-71
2022/01/23 06:55:05;;;;;;;35.27;17.87;;;;;;;;;;5076287;28;20823;-72
2022/01/23 06:57:32;;;;;;;41.00;18.57;;;;;;;;;;5076148;28;20455;-72
2022/01/23 07:00:01;;;;;;;40.30;19.17;;;;;;;;;;5076306;28;20451;-72
2022/01/23 07:02:28;;;;;;;39.13;18.03;;;;;;;;;;5076374;28;20467;-71
2022/01/23 07:04:56;;;;;;;41.23;18.77;;;;;;;;;;5075612;28;20483;-73
2022/01/23 07:07:23;;;;;;;41.90;19.27;;;;;;;;;;5076257;28;20464;-71
2022/01/23 07:09:50;;;;;;;43.53;19.10;;;;;;;;;;5076201;28;20444;-72
2022/01/23 07:12:17;;;;;;;40.63;18.13;;;;;;;;;;5076118;28;20458;-73
2022/01/23 07:14:45;;;;;;;38.63;19.33;;;;;;;;;;5075749;28;20448;-72
2022/01/23 07:17:13;;;;;;;50.13;21.90;;;;;;;;;;5076576;28;20484;-72
2022/01/23 07:19:40;;;;;;;41.97;20.63;;;;;;;;;;5076391;28;20973;-72
2022/01/23 07:22:07;;;;;;;60.90;19.97;;;;;;;;;;5075963;28;20447;-72
2022/01/23 07:24:34;;;;;;;36.90;20.90;;;;;;;;;;5075489;28;20494;-70
2022/01/23 07:27:11;;;;;;;39.33;19.43;;;;;;;;;;5076377;28;20506;-69
2022/01/23 07:29:40;;;;;;;42.20;19.77;;;;;;;;;;5076015;28;20440;-71
2022/01/23 07:32:08;;;;;;;41.10;19.10;;;;;;;;;;5075750;28;20588;-70
2022/01/23 07:34:37;;;;;;;38.30;18.67;;;;;;;;;;5075395;28;20925;-69
2022/01/23 07:37:04;;;;;;;37.60;18.73;;;;;;;;;;5075626;28;20475;-70
2022/01/23 07:39:31;;;;;;;34.70;18.30;;;;;;;;;;5075532;28;20489;-70
2022/01/23 07:41:58;;;;;;;42.40;18.93;;;;;;;;;;5075179;28;20462;-70
2022/01/23 07:44:25;;;;;;;39.00;18.77;;;;;;;;;;5075507;28;20483;-70
2022/01/23 07:46:54;;;;;;;35.63;17.70;;;;;;;;;;5075130;28;20471;-70
2022/01/23 07:49:21;;;;;;;40.20;19.43;;;;;;;;;;5075488;28;20458;-71
2022/01/23 07:51:49;;;;;;;43.73;19.30;;;;;;;;;;5074909;28;20475;-70
2022/01/23 07:54:17;;;;;;;39.30;17.90;;;;;;;;;;5075065;28;20440;-70
2022/01/23 07:56:44;;;;;;;49.60;19.77;;;;;;;;;;5075190;28;21003;-70
2022/01/23 07:59:11;;;;;;;39.00;19.30;;;;;;;;;;5074843;28;20459;-70
2022/01/23 08:01:39;;;;;;;36.93;17.60;;;;;;;;;;5075412;28;20826;-70
2022/01/23 08:04:06;;;;;;;35.63;17.37;;;;;;;;;;5074567;28;20526;-70
2022/01/23 08:06:39;;;;;;;37.30;18.57;;;;;;;;;;5074940;28;21053;-70
2022/01/23 08:09:08;;;;;;;36.83;16.87;;;;;;;;;;5072867;28;20934;-70
2022/01/23 08:11:35;;;;;;;44.97;19.47;;;;;;;;;;5073226;28;20447;-69
2022/01/23 08:14:02;;;;;;;40.80;19.90;;;;;;;;;;5073907;28;20812;-70
2022/01/23 08:16:29;;;;;;;33.93;17.80;;;;;;;;;;5073350;28;20475;-70
2022/01/23 08:18:56;;;;;;;38.17;18.53;;;;;;;;;;5073278;28;20451;-69
2022/01/23 08:21:24;;;;;;;41.47;18.23;;;;;;;;;;5073545;28;20459;-69
2022/01/23 08:23:54;;;;;;;36.70;17.77;;;;;;;;;;5073285;28;20937;-74
2022/01/23 08:26:24;;;;;;;39.73;18.77;;;;;;;;;;5073473;28;20472;-70
2022/01/23 08:28:51;;;;;;;45.70;20.07;;;;;;;;;;5073326;28;20804;-70
2022/01/23 08:31:18;;;;;;;34.10;17.33;;;;;;;;;;5073275;28;20665;-69
2022/01/23 08:33:45;;;;;;;33.00;19.43;;;;;;;;;;5073218;28;20810;-70
2022/01/23 08:36:12;;;;;;;38.37;19.83;;;;;;;;;;5073105;28;20988;-71
2022/01/23 08:38:40;;;;;;;38.57;18.10;;;;;;;;;;5072971;28;20463;-70
2022/01/23 08:43:54;;;;;;;37.30;17.70;;;;;;;;;;5073460;28;20415;-69
2022/01/23 08:46:21;;;;;;;39.27;18.77;;;;;;;;;;5073478;28;20483;-72
2022/01/23 08:48:48;;;;;;;32.93;17.20;;;;;;;;;;5074209;28;20941;-70
2022/01/23 08:51:15;;;;;;;34.20;16.73;;;;;;;;;;5074509;28;20459;-70
2022/01/23 08:53:42;;;;;;;27.43;17.00;;;;;;;;;;5074188;28;20460;-70
2022/01/23 08:56:09;;;;;;;29.57;17.50;;;;;;;;;;5073718;28;20468;-70
2022/01/23 08:58:37;;;;;;;32.23;16.83;;;;;;;;;;5074070;28;20995;-70
2022/01/23 09:01:05;;;;;;;34.47;16.90;;;;;;;;;;5073879;28;20454;-70
2022/01/23 09:03:32;;;;;;;34.80;18.23;;;;;;;;;;5074063;28;20451;-70
2022/01/23 09:05:59;;;;;;;34.40;14.93;;;;;;;;;;5073739;28;20487;-71
2022/01/23 09:08:26;;;;;;;29.70;14.53;;;;;;;;;;5073872;28;20464;-70
2022/01/23 09:10:56;;;;;;;26.80;14.50;;;;;;;;;;5074224;28;20455;-70
2022/01/23 09:13:39;;;;;;;31.47;16.40;;;;;;;;;;5074412;28;20456;-70
2022/01/23 09:16:07;;;;;;;28.03;14.10;;;;;;;;;;5073846;28;20476;-70
2022/01/23 09:18:34;;;;;;;23.70;13.87;;;;;;;;;;5073987;28;20543;-70
2022/01/23 09:21:02;;;;;;;32.63;15.87;;;;;;;;;;5074223;28;20527;-70
2022/01/23 09:23:29;;;;;;;24.33;13.30;;;;;;;;;;5074619;28;20462;-70
2022/01/23 09:25:57;;;;;;;23.53;13.13;;;;;;;;;;5074374;28;20487;-70
2022/01/23 09:28:31;;;;;;;23.43;12.67;;;;;;;;;;5074832;28;20447;-70
2022/01/23 09:30:58;;;;;;;25.33;13.20;;;;;;;;;;5075221;28;20448;-70
2022/01/23 09:33:27;;;;;;;23.90;12.83;;;;;;;;;;5075077;28;20462;-70
2022/01/23 09:35:54;;;;;;;25.73;13.70;;;;;;;;;;5074669;28;20471;-70
2022/01/23 09:38:21;;;;;;;22.67;12.63;;;;;;;;;;5074508;28;20455;-70
2022/01/23 09:40:50;;;;;;;27.30;15.17;;;;;;;;;;5073814;28;20463;-70
2022/01/23 09:43:19;;;;;;;24.50;14.20;;;;;;;;;;5074443;28;20451;-70
2022/01/23 09:45:47;;;;;;;24.53;13.47;;;;;;;;;;5074452;28;20502;-70
2022/01/23 09:48:14;;;;;;;22.83;11.80;;;;;;;;;;5074501;28;20447;-70
2022/01/23 09:50:44;;;;;;;25.97;13.00;;;;;;;;;;5075047;28;20478;-70
2022/01/23 09:53:12;;;;;;;24.37;11.93;;;;;;;;;;5075160;28;20471;-71
2022/01/23 09:55:39;;;;;;;29.03;13.20;;;;;;;;;;5075955;28;20999;-70
2022/01/23 09:58:08;;;;;;;28.57;15.97;;;;;;;;;;5079050;28;20443;-70
2022/01/23 10:00:35;;;;;;;22.87;14.50;;;;;;;;;;5079609;28;20446;-70
2022/01/23 10:03:02;;;;;;;19.30;10.57;;;;;;;;;;5079516;28;20452;-70
2022/01/23 10:05:30;;;;;;;22.73;13.60;;;;;;;;;;5079454;28;20862;-70
2022/01/23 10:08:00;;;;;;;22.30;13.50;;;;;;;;;;5081400;28;20464;-70
2022/01/23 10:10:30;;;;;;;22.83;14.00;;;;;;;;;;5080417;28;20456;-70
2022/01/23 10:12:58;;;;;;;22.30;12.80;;;;;;;;;;5078023;28;20495;-70
2022/01/23 10:15:26;;;;;;;28.80;13.20;;;;;;;;;;5077826;28;20467;-70
2022/01/23 10:17:53;;;;;;;21.50;12.77;;;;;;;;;;5077596;28;20440;-70
2022/01/23 10:20:20;;;;;;;20.13;11.90;;;;;;;;;;5077244;28;20447;-70
2022/01/23 10:22:50;;;;;;;18.57;11.50;;;;;;;;;;5077662;28;20459;-70
2022/01/23 10:25:20;;;;;;;20.83;12.30;;;;;;;;;;5077302;28;21057;-70
2022/01/23 10:27:55;;;;;;;18.70;12.60;;;;;;;;;;5076880;28;20935;-70
2022/01/23 10:30:24;;;;;;;19.33;10.87;;;;;;;;;;5077093;28;20451;-70
2022/01/23 10:32:57;;;;;;;19.90;11.27;;;;;;;;;;5077212;28;20845;-70
2022/01/23 10:35:25;;;;;;;20.80;12.37;;;;;;;;;;5077312;28;20884;-70
2022/01/23 10:37:54;;;;;;;19.63;11.97;;;;;;;;;;5077989;28;20482;-70
2022/01/23 10:40:28;;;;;;;21.60;12.20;;;;;;;;;;5078059;28;20471;-70
2022/01/23 10:48:36;;;;;;;22.60;13.00;;;;;;;;;;5075476;28;20450;-70
2022/01/23 10:51:30;;;;;;;21.40;11.97;;;;;;;;;;5075688;28;20505;-70
2022/01/23 10:53:59;;;;;;;18.60;10.77;;;;;;;;;;5075966;28;20439;-70
2022/01/23 10:56:28;;;;;;;22.13;13.43;;;;;;;;;;5075310;28;20546;-70
2022/01/23 10:58:59;;;;;;;24.90;12.80;;;;;;;;;;5075482;28;20454;-70
2022/01/23 11:01:27;;;;;;;17.30;10.50;;;;;;;;;;5075077;28;20454;-70
2022/01/23 11:04:04;;;;;;;17.10;10.40;;;;;;;;;;5075079;28;20459;-70
2022/01/23 11:06:32;;;;;;;16.80;10.40;;;;;;;;;;5075065;28;20487;-70
2022/01/23 11:09:08;;;;;;;16.67;10.53;;;;;;;;;;5074411;28;20652;-70
2022/01/23 11:11:45;;;;;;;19.10;11.93;;;;;;;;;;5074278;28;20451;-70
2022/01/23 11:19:46;;;;;;;22.07;12.23;;;;;;;;;;5074281;28;20427;-69
2022/01/23 11:22:17;;;;;;;18.57;10.80;;;;;;;;;;5074392;28;20895;-69
2022/01/23 11:24:47;;;;;;;19.07;11.53;;;;;;;;;;5074045;28;20451;-70
2022/01/23 11:27:16;;;;;;;18.97;11.40;;;;;;;;;;5074490;28;20488;-69
2022/01/23 11:30:00;;;;;;;15.80;10.43;;;;;;;;;;5075565;28;20456;-69
2022/01/23 11:32:30;;;;;;;15.23;10.30;;;;;;;;;;5075446;28;20455;-69
2022/01/23 11:35:05;;;;;;;17.87;10.10;;;;;;;;;;5075049;28;20438;-70
2022/01/23 11:37:33;;;;;;;16.40;10.37;;;;;;;;;;5075237;28;20432;-70
2022/01/23 11:40:06;;;;;;;14.10;9.20;;;;;;;;;;5075071;28;20904;-69
2022/01/23 11:51:18;;;;;;;20.53;12.33;;;;;;;;;;5093971;28;20466;-69
2022/01/23 11:53:53;;;;;;;18.00;11.33;;;;;;;;;;5093207;28;20470;-70
2022/01/23 11:56:35;;;;;;;18.13;11.03;;;;;;;;;;5093604;28;20480;-70
2022/01/23 11:59:17;;;;;;;20.03;11.17;;;;;;;;;;5093693;28;20558;-70
2022/01/23 12:01:45;;;;;;;19.53;11.87;;;;;;;;;;5092829;28;20947;-70
2022/01/23 12:04:18;;;;;;;21.50;11.73;;;;;;;;;;5093253;28;20457;-69
2022/01/23 12:07:00;;;;;;;19.17;11.40;;;;;;;;;;5093028;28;20513;-70
2022/01/23 12:09:27;;;;;;;16.77;10.90;;;;;;;;;;5093076;28;20446;-69
2022/01/23 12:12:07;;;;;;;18.07;11.20;;;;;;;;;;5092861;28;20554;-69
2022/01/23 12:17:27;;;;;;;19.13;11.77;;;;;;;;;;5094223;28;20430;-69
2022/01/23 12:19:56;;;;;;;35.83;22.40;;;;;;;;;;5093242;28;20450;-69
2022/01/23 12:22:28;;;;;;;19.20;11.60;;;;;;;;;;5094333;28;20872;-69
2022/01/23 12:24:56;;;;;;;18.80;11.77;;;;;;;;;;5094037;28;20446;-69
2022/01/23 12:27:26;;;;;;;24.10;14.83;;;;;;;;;;5094234;28;20450;-69
2022/01/23 12:29:55;;;;;;;20.10;12.90;;;;;;;;;;5094181;28;20813;-69
2022/01/23 12:32:28;;;;;;;27.37;17.53;;;;;;;;;;5094023;28;20450;-69
2022/01/23 12:34:57;;;;;;;20.43;12.17;;;;;;;;;;5093844;28;20822;-69
2022/01/23 12:37:24;;;;;;;20.90;12.13;;;;;;;;;;5094282;28;20946;-69
2022/01/23 12:40:09;;;;;;;20.33;12.40;;;;;;;;;;5093847;28;20473;-69
2022/01/23 12:42:55;;;;;;;21.93;13.40;;;;;;;;;;5093998;28;20450;-68
2022/01/23 12:45:40;;;;;;;23.37;14.37;;;;;;;;;;5093673;28;20482;-68
2022/01/23 12:48:32;;;;;;;24.20;13.63;;;;;;;;;;5093845;28;20458;-68
2022/01/23 12:51:03;;;;;;;31.90;16.07;;;;;;;;;;5079039;28;20966;-68
2022/01/23 12:53:36;;;;;;;38.83;21.00;;;;;;;;;;5093654;28;20454;-69
2022/01/23 12:56:04;;;;;;;26.30;13.70;;;;;;;;;;5093727;28;20466;-69
2022/01/23 12:58:33;;;;;;;26.03;16.67;;;;;;;;;;5093673;28;20513;-69
2022/01/23 13:01:00;;;;;;;28.63;17.20;;;;;;;;;;5093607;28;20451;-69
2022/01/23 13:03:28;;;;;;;33.90;19.30;;;;;;;;;;5093551;28;20442;-69
2022/01/23 13:05:55;;;;;;;55.73;31.30;;;;;;;;;;5093301;28;20548;-69
2022/01/23 13:08:28;;;;;;;42.27;23.43;;;;;;;;;;5093610;28;20465;-69
2022/01/23 13:11:20;;;;;;;21.73;12.00;;;;;;;;;;5093463;28;20451;-68
2022/01/23 13:13:52;;;;;;;28.67;19.93;;;;;;;;;;5093101;28;20451;-69
2022/01/23 13:16:31;;;;;;;28.53;17.00;;;;;;;;;;5093328;28;20493;-69
2022/01/23 13:28:00;;;;;;;21.33;12.53;;;;;;;;;;5093311;28;20848;-68
2022/01/23 13:30:18;;;;;;;26.57;14.53;;;;;;;;;;5092781;28;20528;-68
2022/01/23 13:32:47;;;;;;;20.10;13.53;;;;;;;;;;5092961;28;20453;-68
2022/01/23 13:35:16;;;;;;;20.40;13.07;;;;;;;;;;5093030;28;20520;-68
2022/01/23 13:37:45;;;;;;;20.77;13.07;;;;;;;;;;5092894;28;20462;-68
2022/01/23 13:40:16;;;;;;;28.60;14.67;;;;;;;;;;5092903;28;20877;-69
2022/01/23 13:42:57;;;;;;;29.50;16.70;;;;;;;;;;5092937;28;20478;-69
2022/01/23 13:59:34;;;;;;;25.90;16.90;;;;;;;;;;5092955;28;20430;-68
2022/01/23 14:02:15;;;;;;;25.73;14.60;;;;;;;;;;5092982;28;20454;-68
2022/01/23 14:04:46;;;;;;;21.80;12.20;;;;;;;;;;5092575;28;20549;-69
2022/01/23 14:07:18;;;;;;;27.30;18.10;;;;;;;;;;5092937;28;20487;-69
2022/01/23 14:09:45;;;;;;;23.60;13.00;;;;;;;;;;5092807;28;20446;-68
2022/01/23 14:12:15;;;;;;;28.73;17.00;;;;;;;;;;5092941;28;20447;-68
2022/01/23 14:14:50;;;;;;;29.03;16.00;;;;;;;;;;5092604;28;20457;-69
2022/01/23 14:17:17;;;;;;;22.67;13.10;;;;;;;;;;5092724;28;20987;-69
2022/01/23 14:19:57;;;;;;;25.60;13.93;;;;;;;;;;5092706;28;20461;-68
2022/01/23 14:22:28;;;;;;;27.00;14.07;;;;;;;;;;5092790;28;20446;-68
2022/01/23 14:25:06;;;;;;;28.67;15.43;;;;;;;;;;5092132;28;20450;-69
2022/01/23 14:27:35;;;;;;;27.73;15.20;;;;;;;;;;5091974;28;20858;-69
2022/01/23 14:30:06;;;;;;;28.77;15.73;;;;;;;;;;5092497;28;20450;-68
2022/01/23 14:32:41;;;;;;;21.17;14.33;;;;;;;;;;5092541;28;20932;-68
2022/01/23 14:35:11;;;;;;;24.67;15.30;;;;;;;;;;5092449;28;20822;-68
2022/01/23 14:37:38;;;;;;;25.33;14.73;;;;;;;;;;5092601;28;20538;-68
2022/01/23 14:40:09;;;;;;;31.83;17.30;;;;;;;;;;5092520;28;20454;-69
2022/01/23 14:42:38;;;;;;;28.57;16.00;;;;;;;;;;5092854;28;20451;-69
2022/01/23 14:45:06;;;;;;;29.13;16.43;;;;;;;;;;5096088;28;20442;-69
2022/01/23 14:47:37;;;;;;;28.23;15.70;;;;;;;;;;5096106;28;20490;-68
2022/01/23 14:50:06;;;;;;;25.53;14.70;;;;;;;;;;5096192;28;20457;-69
2022/01/23 14:52:33;;;;;;;28.37;15.40;;;;;;;;;;5095565;28;20450;-69
2022/01/23 14:55:00;;;;;;;31.00;18.43;;;;;;;;;;5096072;28;20826;-69
2022/01/23 14:57:27;;;;;;;34.80;18.70;;;;;;;;;;5096225;28;20457;-69
2022/01/23 14:59:59;;;;;;;36.27;20.07;;;;;;;;;;5095941;28;20442;-69
2022/01/23 15:02:26;;;;;;;38.73;22.30;;;;;;;;;;5096133;28;20993;-69
2022/01/23 15:04:53;;;;;;;37.27;19.10;;;;;;;;;;5095051;28;20537;-69
2022/01/23 15:07:20;;;;;;;28.80;16.03;;;;;;;;;;5095606;28;20497;-69
2022/01/23 15:09:49;;;;;;;28.60;15.67;;;;;;;;;;5095795;28;20462;-69
2022/01/23 15:12:17;;;;;;;30.80;17.23;;;;;;;;;;5095767;28;20458;-69
2022/01/23 15:14:45;;;;;;;28.10;16.70;;;;;;;;;;5094846;28;20508;-69
2022/01/23 15:17:13;;;;;;;29.60;18.37;;;;;;;;;;5095514;28;20471;-69
2022/01/23 15:19:40;;;;;;;31.10;15.73;;;;;;;;;;5095453;28;20458;-69
2022/01/23 15:22:07;;;;;;;26.13;16.50;;;;;;;;;;5095518;28;20451;-69
2022/01/23 15:24:35;;;;;;;29.63;18.10;;;;;;;;;;5094966;28;20791;-69
2022/01/23 15:27:02;;;;;;;28.50;16.63;;;;;;;;;;5095285;28;20579;-69
2022/01/23 15:29:29;;;;;;;27.77;16.03;;;;;;;;;;5095432;28;20447;-69
2022/01/23 15:31:56;;;;;;;29.00;16.20;;;;;;;;;;5095332;28;21003;-69
2022/01/23 15:34:25;;;;;;;30.93;17.33;;;;;;;;;;5095049;28;20455;-69
2022/01/23 15:36:53;;;;;;;33.03;16.10;;;;;;;;;;5095018;28;20853;-69
2022/01/23 15:39:20;;;;;;;37.60;21.30;;;;;;;;;;5095327;28;20821;-68
2022/01/23 15:41:48;;;;;;;35.70;20.00;;;;;;;;;;5095063;28;20451;-69
2022/01/23 15:44:15;;;;;;;32.07;18.80;;;;;;;;;;5094919;28;20447;-69
2022/01/23 15:46:43;;;;;;;36.10;18.63;;;;;;;;;;5094802;28;20860;-69
2022/01/23 15:49:11;;;;;;;30.97;18.33;;;;;;;;;;5095076;28;20924;-69
2022/01/23 15:51:39;;;;;;;39.37;20.30;;;;;;;;;;5074766;28;20448;-69
2022/01/23 15:54:07;;;;;;;49.60;25.23;;;;;;;;;;5074404;28;20448;-69
2022/01/23 15:56:34;;;;;;;76.60;37.60;;;;;;;;;;5074641;28;20531;-69
2022/01/23 15:59:01;;;;;;;71.07;35.77;;;;;;;;;;5074797;28;20452;-69
2022/01/23 16:01:28;;;;;;;89.90;44.60;;;;;;;;;;5074697;28;20463;-69
2022/01/23 16:03:55;;;;;;;93.93;46.50;;;;;;;;;;5075262;28;20456;-70
2022/01/23 16:06:23;;;;;;;61.70;36.57;;;;;;;;;;5074506;28;20498;-69
2022/01/23 16:08:52;;;;;;;73.87;38.17;;;;;;;;;;5074952;28;20832;-69
2022/01/23 16:11:19;;;;;;;47.53;28.07;;;;;;;;;;5075296;28;20447;-69
2022/01/23 16:13:46;;;;;;;42.33;22.97;;;;;;;;;;5074609;28;20456;-69
2022/01/23 16:16:13;;;;;;;40.13;21.57;;;;;;;;;;5074553;28;20475;-69
2022/01/23 16:18:40;;;;;;;36.40;21.60;;;;;;;;;;5075173;28;20960;-69
2022/01/23 16:21:09;;;;;;;49.10;26.73;;;;;;;;;;5074852;28;20451;-69
2022/01/23 16:23:36;;;;;;;56.57;31.80;;;;;;;;;;5074576;28;20994;-69
2022/01/23 16:26:05;;;;;;;47.83;24.90;;;;;;;;;;5074409;28;20479;-69
2022/01/23 16:28:32;;;;;;;47.70;22.27;;;;;;;;;;5074552;28;20464;-69
2022/01/23 16:31:00;;;;;;;38.27;23.43;;;;;;;;;;5074288;28;20448;-69
2022/01/23 16:33:28;;;;;;;44.70;24.67;;;;;;;;;;5074328;28;20929;-70
2022/01/23 16:35:55;;;;;;;42.07;24.43;;;;;;;;;;5074397;28;20866;-69
2022/01/23 16:38:23;;;;;;;47.37;28.43;;;;;;;;;;5074666;28;20444;-69
2022/01/23 16:40:54;;;;;;;44.63;26.80;;;;;;;;;;5073967;28;20463;-69
2022/01/23 16:43:23;;;;;;;30.80;19.40;;;;;;;;;;5073825;28;20455;-69
2022/01/23 16:45:51;;;;;;;37.90;19.37;;;;;;;;;;5073769;28;20476;-69
2022/01/23 16:48:18;;;;;;;33.87;19.80;;;;;;;;;;5074116;28;20854;-69
2022/01/23 16:50:45;;;;;;;31.73;17.73;;;;;;;;;;5074044;28;20450;-69
2022/01/23 16:53:12;;;;;;;27.87;16.47;;;;;;;;;;5074035;28;20936;-69
2022/01/23 16:55:40;;;;;;;30.27;17.77;;;;;;;;;;5073234;28;20471;-69
2022/01/23 16:58:07;;;;;;;33.17;16.50;;;;;;;;;;5073850;28;20455;-69
2022/01/23 17:00:36;;;;;;;26.83;16.27;;;;;;;;;;5073866;28;20509;-69
2022/01/23 17:03:04;;;;;;;34.07;17.97;;;;;;;;;;5074333;28;20523;-69
2022/01/23 17:05:31;;;;;;;27.10;16.97;;;;;;;;;;5072395;28;20972;-69
2022/01/23 17:07:59;;;;;;;32.10;18.33;;;;;;;;;;5073740;28;20483;-69
2022/01/23 17:10:26;;;;;;;40.60;22.17;;;;;;;;;;5073747;28;20460;-69
2022/01/23 17:12:53;;;;;;;32.60;19.73;;;;;;;;;;5073863;28;20933;-69